sensor_id;sensor_type;location;lat;lon;timestamp;P1;durP1;ratioP1;P2;durP2;ratioP2
59336;SDS011;45115;52.002;4.686;2023-07-29T00:00:55;5.13;;;2.08;;
59336;SDS011;45115;52.002;4.686;2023-07-29T00:03:22;6.22;;;2.20;;
59336;SDS011;45115;52.002;4.686;2023-07-29T00:05:49;5.50;;;2.30;;
59336;SDS011;45115;52.002;4.686;2023-07-29T00:08:15;5.38;;;2.33;;
59336;SDS011;45115;52.002;4.686;2023-07-29T00:10:43;7.03;;;2.60;;
59336;SDS011;45115;52.002;4.686;2023-07-29T00:13:10;3.50;;;2.25;;
59336;SDS011;45115;52.002;4.686;2023-07-29T00:15:37;6.00;;;2.55;;
59336;SDS011;45115;52.002;4.686;2023-07-29T00:18:03;5.00;;;2.38;;
59336;SDS011;45115;52.002;4.686;2023-07-29T00:20:30;3.85;;;2.30;;
59336;SDS011;45115;52.002;4.686;2023-07-29T00:22:56;4.53;;;2.25;;
59336;SDS011;45115;52.002;4.686;2023-07-29T00:25:24;4.90;;;2.22;;
59336;SDS011;45115;52.002;4.686;2023-07-29T00:27:52;3.33;;;2.05;;
59336;SDS011;45115;52.002;4.686;2023-07-29T00:30:20;5.53;;;2.40;;
59336;SDS011;45115;52.002;4.686;2023-07-29T00:32:47;6.38;;;2.20;;
59336;SDS011;45115;52.002;4.686;2023-07-29T00:35:14;6.25;;;2.85;;
59336;SDS011;45115;52.002;4.686;2023-07-29T00:37:40;6.65;;;3.35;;
59336;SDS011;45115;52.002;4.686;2023-07-29T00:40:09;7.22;;;2.72;;
59336;SDS011;45115;52.002;4.686;2023-07-29T00:42:41;7.07;;;2.72;;
59336;SDS011;45115;52.002;4.686;2023-07-29T00:45:10;7.80;;;3.13;;
59336;SDS011;45115;52.002;4.686;2023-07-29T00:47:36;6.70;;;2.70;;
59336;SDS011;45115;52.002;4.686;2023-07-29T00:50:04;9.70;;;3.40;;
59336;SDS011;45115;52.002;4.686;2023-07-29T00:52:32;7.78;;;3.55;;
59336;SDS011;45115;52.002;4.686;2023-07-29T00:54:59;7.07;;;2.90;;
59336;SDS011;45115;52.002;4.686;2023-07-29T00:57:25;9.10;;;3.40;;
59336;SDS011;45115;52.002;4.686;2023-07-29T00:59:53;7.82;;;3.42;;
59336;SDS011;45115;52.002;4.686;2023-07-29T01:02:22;10.50;;;3.60;;
59336;SDS011;45115;52.002;4.686;2023-07-29T01:04:51;8.45;;;3.53;;
59336;SDS011;45115;52.002;4.686;2023-07-29T01:07:19;10.00;;;4.30;;
59336;SDS011;45115;52.002;4.686;2023-07-29T01:09:53;11.95;;;4.20;;
59336;SDS011;45115;52.002;4.686;2023-07-29T01:12:27;10.55;;;3.78;;
59336;SDS011;45115;52.002;4.686;2023-07-29T01:15:01;9.95;;;3.90;;
59336;SDS011;45115;52.002;4.686;2023-07-29T01:17:39;7.20;;;3.60;;
59336;SDS011;45115;52.002;4.686;2023-07-29T01:20:09;11.05;;;4.10;;
59336;SDS011;45115;52.002;4.686;2023-07-29T01:25:08;9.20;;;3.60;;
59336;SDS011;45115;52.002;4.686;2023-07-29T01:27:34;9.85;;;3.53;;
59336;SDS011;45115;52.002;4.686;2023-07-29T01:30:02;9.30;;;3.60;;
59336;SDS011;45115;52.002;4.686;2023-07-29T01:32:30;6.75;;;2.90;;
59336;SDS011;45115;52.002;4.686;2023-07-29T01:35:06;6.50;;;3.05;;
59336;SDS011;45115;52.002;4.686;2023-07-29T01:37:51;5.40;;;2.78;;
59336;SDS011;45115;52.002;4.686;2023-07-29T01:40:23;9.80;;;3.00;;
59336;SDS011;45115;52.002;4.686;2023-07-29T01:42:53;5.03;;;2.80;;
59336;SDS011;45115;52.002;4.686;2023-07-29T01:45:22;6.22;;;2.70;;
59336;SDS011;45115;52.002;4.686;2023-07-29T01:47:50;5.28;;;2.30;;
59336;SDS011;45115;52.002;4.686;2023-07-29T01:50:17;6.15;;;2.83;;
59336;SDS011;45115;52.002;4.686;2023-07-29T01:52:44;5.90;;;2.70;;
59336;SDS011;45115;52.002;4.686;2023-07-29T01:55:11;5.57;;;2.85;;
59336;SDS011;45115;52.002;4.686;2023-07-29T01:57:38;4.82;;;2.80;;
59336;SDS011;45115;52.002;4.686;2023-07-29T02:00:06;4.80;;;2.65;;
59336;SDS011;45115;52.002;4.686;2023-07-29T02:02:39;3.97;;;2.50;;
59336;SDS011;45115;52.002;4.686;2023-07-29T02:05:06;4.28;;;3.50;;
59336;SDS011;45115;52.002;4.686;2023-07-29T02:07:33;7.00;;;2.88;;
59336;SDS011;45115;52.002;4.686;2023-07-29T02:10:02;5.97;;;3.05;;
59336;SDS011;45115;52.002;4.686;2023-07-29T02:12:29;6.15;;;2.63;;
59336;SDS011;45115;52.002;4.686;2023-07-29T02:14:57;7.68;;;2.53;;
59336;SDS011;45115;52.002;4.686;2023-07-29T02:17:23;5.60;;;2.70;;
59336;SDS011;45115;52.002;4.686;2023-07-29T02:19:51;4.82;;;2.55;;
59336;SDS011;45115;52.002;4.686;2023-07-29T02:22:18;7.20;;;3.05;;
59336;SDS011;45115;52.002;4.686;2023-07-29T02:24:45;5.97;;;2.80;;
59336;SDS011;45115;52.002;4.686;2023-07-29T02:27:11;5.70;;;2.97;;
59336;SDS011;45115;52.002;4.686;2023-07-29T02:29:38;6.20;;;2.67;;
59336;SDS011;45115;52.002;4.686;2023-07-29T02:32:06;5.45;;;3.05;;
59336;SDS011;45115;52.002;4.686;2023-07-29T02:34:33;4.88;;;2.65;;
59336;SDS011;45115;52.002;4.686;2023-07-29T02:37:00;7.18;;;2.80;;
59336;SDS011;45115;52.002;4.686;2023-07-29T02:39:27;6.10;;;2.70;;
59336;SDS011;45115;52.002;4.686;2023-07-29T02:41:54;5.13;;;2.45;;
59336;SDS011;45115;52.002;4.686;2023-07-29T02:44:21;6.22;;;2.90;;
59336;SDS011;45115;52.002;4.686;2023-07-29T02:46:47;6.78;;;3.05;;
59336;SDS011;45115;52.002;4.686;2023-07-29T02:49:16;4.97;;;2.70;;
59336;SDS011;45115;52.002;4.686;2023-07-29T02:51:42;5.75;;;2.75;;
59336;SDS011;45115;52.002;4.686;2023-07-29T02:54:09;4.57;;;2.50;;
59336;SDS011;45115;52.002;4.686;2023-07-29T02:56:36;6.43;;;2.60;;
59336;SDS011;45115;52.002;4.686;2023-07-29T02:59:02;5.43;;;2.60;;
59336;SDS011;45115;52.002;4.686;2023-07-29T03:01:30;5.40;;;2.80;;
59336;SDS011;45115;52.002;4.686;2023-07-29T03:03:57;4.53;;;2.45;;
59336;SDS011;45115;52.002;4.686;2023-07-29T03:06:25;4.88;;;2.70;;
59336;SDS011;45115;52.002;4.686;2023-07-29T03:08:52;4.68;;;2.60;;
59336;SDS011;45115;52.002;4.686;2023-07-29T03:11:18;5.35;;;2.58;;
59336;SDS011;45115;52.002;4.686;2023-07-29T03:13:45;5.25;;;2.50;;
59336;SDS011;45115;52.002;4.686;2023-07-29T03:16:13;5.25;;;2.42;;
59336;SDS011;45115;52.002;4.686;2023-07-29T03:18:47;3.92;;;2.40;;
59336;SDS011;45115;52.002;4.686;2023-07-29T03:21:15;7.78;;;2.92;;
59336;SDS011;45115;52.002;4.686;2023-07-29T03:23:43;8.25;;;2.72;;
59336;SDS011;45115;52.002;4.686;2023-07-29T03:26:10;6.05;;;2.50;;
59336;SDS011;45115;52.002;4.686;2023-07-29T03:28:39;6.40;;;2.70;;
59336;SDS011;45115;52.002;4.686;2023-07-29T03:31:06;3.05;;;2.40;;
59336;SDS011;45115;52.002;4.686;2023-07-29T03:33:33;5.05;;;2.90;;
59336;SDS011;45115;52.002;4.686;2023-07-29T03:36:00;5.53;;;2.40;;
59336;SDS011;45115;52.002;4.686;2023-07-29T03:38:27;7.00;;;3.10;;
59336;SDS011;45115;52.002;4.686;2023-07-29T03:40:55;7.32;;;2.70;;
59336;SDS011;45115;52.002;4.686;2023-07-29T03:43:22;6.05;;;2.88;;
59336;SDS011;45115;52.002;4.686;2023-07-29T03:45:49;7.10;;;3.10;;
59336;SDS011;45115;52.002;4.686;2023-07-29T03:48:16;5.18;;;2.60;;
59336;SDS011;45115;52.002;4.686;2023-07-29T03:50:43;5.78;;;2.78;;
59336;SDS011;45115;52.002;4.686;2023-07-29T03:53:09;5.68;;;3.05;;
59336;SDS011;45115;52.002;4.686;2023-07-29T03:55:36;6.03;;;3.17;;
59336;SDS011;45115;52.002;4.686;2023-07-29T03:58:04;8.13;;;3.45;;
59336;SDS011;45115;52.002;4.686;2023-07-29T04:00:31;6.00;;;2.75;;
59336;SDS011;45115;52.002;4.686;2023-07-29T04:02:58;5.07;;;2.75;;
59336;SDS011;45115;52.002;4.686;2023-07-29T04:05:25;8.48;;;3.45;;
59336;SDS011;45115;52.002;4.686;2023-07-29T04:07:53;6.90;;;3.50;;
59336;SDS011;45115;52.002;4.686;2023-07-29T04:10:20;7.85;;;3.22;;
59336;SDS011;45115;52.002;4.686;2023-07-29T04:12:47;4.63;;;3.10;;
59336;SDS011;45115;52.002;4.686;2023-07-29T04:15:15;8.60;;;3.13;;
59336;SDS011;45115;52.002;4.686;2023-07-29T04:17:42;7.40;;;3.10;;
59336;SDS011;45115;52.002;4.686;2023-07-29T04:20:10;6.50;;;3.40;;
59336;SDS011;45115;52.002;4.686;2023-07-29T04:22:37;6.20;;;3.00;;
59336;SDS011;45115;52.002;4.686;2023-07-29T04:25:04;9.32;;;3.20;;
59336;SDS011;45115;52.002;4.686;2023-07-29T04:27:31;8.48;;;3.42;;
59336;SDS011;45115;52.002;4.686;2023-07-29T04:29:58;9.82;;;4.07;;
59336;SDS011;45115;52.002;4.686;2023-07-29T04:32:26;8.43;;;3.53;;
59336;SDS011;45115;52.002;4.686;2023-07-29T04:34:53;6.90;;;3.65;;
59336;SDS011;45115;52.002;4.686;2023-07-29T04:37:20;8.57;;;4.15;;
59336;SDS011;45115;52.002;4.686;2023-07-29T04:39:46;10.05;;;4.10;;
59336;SDS011;45115;52.002;4.686;2023-07-29T04:42:13;9.20;;;3.85;;
59336;SDS011;45115;52.002;4.686;2023-07-29T04:44:39;8.43;;;3.63;;
59336;SDS011;45115;52.002;4.686;2023-07-29T04:47:07;7.70;;;3.90;;
59336;SDS011;45115;52.002;4.686;2023-07-29T04:49:35;6.97;;;3.92;;
59336;SDS011;45115;52.002;4.686;2023-07-29T04:52:02;7.90;;;3.92;;
59336;SDS011;45115;52.002;4.686;2023-07-29T04:54:29;8.15;;;3.95;;
59336;SDS011;45115;52.002;4.686;2023-07-29T04:56:56;10.52;;;5.22;;
59336;SDS011;45115;52.002;4.686;2023-07-29T04:59:23;12.68;;;4.45;;
59336;SDS011;45115;52.002;4.686;2023-07-29T05:01:50;7.53;;;3.78;;
59336;SDS011;45115;52.002;4.686;2023-07-29T05:04:17;11.02;;;4.53;;
59336;SDS011;45115;52.002;4.686;2023-07-29T05:06:46;9.77;;;4.88;;
59336;SDS011;45115;52.002;4.686;2023-07-29T05:09:13;12.23;;;5.00;;
59336;SDS011;45115;52.002;4.686;2023-07-29T05:11:40;10.73;;;4.30;;
59336;SDS011;45115;52.002;4.686;2023-07-29T05:14:08;10.38;;;4.43;;
59336;SDS011;45115;52.002;4.686;2023-07-29T05:16:35;9.57;;;4.22;;
59336;SDS011;45115;52.002;4.686;2023-07-29T05:19:03;9.13;;;3.88;;
59336;SDS011;45115;52.002;4.686;2023-07-29T05:21:30;12.23;;;4.90;;
59336;SDS011;45115;52.002;4.686;2023-07-29T05:23:58;8.50;;;4.53;;
59336;SDS011;45115;52.002;4.686;2023-07-29T05:26:25;10.77;;;4.80;;
59336;SDS011;45115;52.002;4.686;2023-07-29T05:28:52;8.23;;;4.55;;
59336;SDS011;45115;52.002;4.686;2023-07-29T05:31:19;10.13;;;4.97;;
59336;SDS011;45115;52.002;4.686;2023-07-29T05:33:46;9.85;;;4.63;;
59336;SDS011;45115;52.002;4.686;2023-07-29T05:36:12;12.55;;;4.68;;
59336;SDS011;45115;52.002;4.686;2023-07-29T05:38:39;10.73;;;5.15;;
59336;SDS011;45115;52.002;4.686;2023-07-29T05:41:10;9.50;;;4.60;;
59336;SDS011;45115;52.002;4.686;2023-07-29T05:43:37;9.27;;;4.38;;
59336;SDS011;45115;52.002;4.686;2023-07-29T05:46:04;11.02;;;4.80;;
59336;SDS011;45115;52.002;4.686;2023-07-29T05:48:31;11.80;;;5.45;;
59336;SDS011;45115;52.002;4.686;2023-07-29T05:50:59;11.32;;;4.80;;
59336;SDS011;45115;52.002;4.686;2023-07-29T05:53:26;7.80;;;4.13;;
59336;SDS011;45115;52.002;4.686;2023-07-29T05:55:53;10.88;;;4.60;;
59336;SDS011;45115;52.002;4.686;2023-07-29T05:58:22;9.07;;;4.45;;
59336;SDS011;45115;52.002;4.686;2023-07-29T06:00:49;9.93;;;5.05;;
59336;SDS011;45115;52.002;4.686;2023-07-29T06:03:17;8.23;;;4.35;;
59336;SDS011;45115;52.002;4.686;2023-07-29T06:05:44;10.95;;;4.75;;
59336;SDS011;45115;52.002;4.686;2023-07-29T06:08:11;9.38;;;4.30;;
59336;SDS011;45115;52.002;4.686;2023-07-29T06:10:38;7.85;;;4.50;;
59336;SDS011;45115;52.002;4.686;2023-07-29T06:13:05;6.90;;;4.05;;
59336;SDS011;45115;52.002;4.686;2023-07-29T06:15:33;9.13;;;3.85;;
59336;SDS011;45115;52.002;4.686;2023-07-29T06:18:00;9.07;;;4.22;;
59336;SDS011;45115;52.002;4.686;2023-07-29T06:20:27;8.07;;;4.30;;
59336;SDS011;45115;52.002;4.686;2023-07-29T06:22:54;11.48;;;4.60;;
59336;SDS011;45115;52.002;4.686;2023-07-29T06:25:21;8.70;;;4.30;;
59336;SDS011;45115;52.002;4.686;2023-07-29T06:27:48;9.63;;;4.25;;
59336;SDS011;45115;52.002;4.686;2023-07-29T06:30:14;11.85;;;4.60;;
59336;SDS011;45115;52.002;4.686;2023-07-29T06:32:42;9.50;;;4.28;;
59336;SDS011;45115;52.002;4.686;2023-07-29T06:35:09;7.35;;;4.45;;
59336;SDS011;45115;52.002;4.686;2023-07-29T06:37:36;8.82;;;4.22;;
59336;SDS011;45115;52.002;4.686;2023-07-29T06:40:03;8.50;;;4.20;;
59336;SDS011;45115;52.002;4.686;2023-07-29T06:42:30;7.85;;;3.70;;
59336;SDS011;45115;52.002;4.686;2023-07-29T06:44:57;6.13;;;3.97;;
59336;SDS011;45115;52.002;4.686;2023-07-29T06:47:24;8.77;;;3.95;;
59336;SDS011;45115;52.002;4.686;2023-07-29T06:49:53;7.30;;;3.67;;
59336;SDS011;45115;52.002;4.686;2023-07-29T06:52:20;7.60;;;4.03;;
59336;SDS011;45115;52.002;4.686;2023-07-29T06:54:46;5.57;;;3.33;;
59336;SDS011;45115;52.002;4.686;2023-07-29T06:57:13;6.97;;;3.45;;
59336;SDS011;45115;52.002;4.686;2023-07-29T06:59:40;7.90;;;3.50;;
59336;SDS011;45115;52.002;4.686;2023-07-29T07:02:14;6.57;;;3.50;;
59336;SDS011;45115;52.002;4.686;2023-07-29T07:04:44;7.68;;;3.50;;
59336;SDS011;45115;52.002;4.686;2023-07-29T07:07:17;7.47;;;3.20;;
59336;SDS011;45115;52.002;4.686;2023-07-29T07:09:44;7.38;;;3.47;;
59336;SDS011;45115;52.002;4.686;2023-07-29T07:12:11;5.20;;;3.40;;
59336;SDS011;45115;52.002;4.686;2023-07-29T07:14:38;6.88;;;3.90;;
59336;SDS011;45115;52.002;4.686;2023-07-29T07:17:05;6.90;;;4.13;;
59336;SDS011;45115;52.002;4.686;2023-07-29T07:19:32;8.55;;;4.05;;
59336;SDS011;45115;52.002;4.686;2023-07-29T07:21:58;6.22;;;3.60;;
59336;SDS011;45115;52.002;4.686;2023-07-29T07:24:27;6.32;;;3.40;;
59336;SDS011;45115;52.002;4.686;2023-07-29T07:26:53;6.53;;;3.10;;
59336;SDS011;45115;52.002;4.686;2023-07-29T07:29:20;6.60;;;3.97;;
59336;SDS011;45115;52.002;4.686;2023-07-29T07:31:49;6.45;;;4.22;;
59336;SDS011;45115;52.002;4.686;2023-07-29T07:34:18;4.93;;;3.80;;
59336;SDS011;45115;52.002;4.686;2023-07-29T07:36:45;10.25;;;4.40;;
59336;SDS011;45115;52.002;4.686;2023-07-29T07:39:12;6.70;;;4.10;;
59336;SDS011;45115;52.002;4.686;2023-07-29T07:41:41;9.52;;;4.00;;
59336;SDS011;45115;52.002;4.686;2023-07-29T07:44:07;6.40;;;4.07;;
59336;SDS011;45115;52.002;4.686;2023-07-29T07:46:36;7.90;;;4.28;;
59336;SDS011;45115;52.002;4.686;2023-07-29T07:49:02;7.97;;;4.90;;
59336;SDS011;45115;52.002;4.686;2023-07-29T07:51:29;8.50;;;4.63;;
59336;SDS011;45115;52.002;4.686;2023-07-29T07:53:56;8.38;;;4.57;;
59336;SDS011;45115;52.002;4.686;2023-07-29T07:56:22;8.25;;;4.60;;
59336;SDS011;45115;52.002;4.686;2023-07-29T07:58:51;6.75;;;4.45;;
59336;SDS011;45115;52.002;4.686;2023-07-29T08:01:17;10.88;;;4.00;;
59336;SDS011;45115;52.002;4.686;2023-07-29T08:03:44;7.93;;;4.13;;
59336;SDS011;45115;52.002;4.686;2023-07-29T08:06:11;8.05;;;4.40;;
59336;SDS011;45115;52.002;4.686;2023-07-29T08:08:38;8.82;;;4.18;;
59336;SDS011;45115;52.002;4.686;2023-07-29T08:11:04;7.22;;;3.50;;
59336;SDS011;45115;52.002;4.686;2023-07-29T08:13:31;5.35;;;3.10;;
59336;SDS011;45115;52.002;4.686;2023-07-29T08:16:03;6.07;;;3.25;;
59336;SDS011;45115;52.002;4.686;2023-07-29T08:18:30;5.65;;;3.17;;
59336;SDS011;45115;52.002;4.686;2023-07-29T08:20:59;5.50;;;3.08;;
59336;SDS011;45115;52.002;4.686;2023-07-29T08:23:30;5.38;;;3.42;;
59336;SDS011;45115;52.002;4.686;2023-07-29T08:26:00;6.28;;;3.35;;
59336;SDS011;45115;52.002;4.686;2023-07-29T08:28:29;8.07;;;3.80;;
59336;SDS011;45115;52.002;4.686;2023-07-29T08:30:57;6.13;;;3.67;;
59336;SDS011;45115;52.002;4.686;2023-07-29T08:33:25;6.55;;;3.50;;
59336;SDS011;45115;52.002;4.686;2023-07-29T08:35:53;6.63;;;3.50;;
59336;SDS011;45115;52.002;4.686;2023-07-29T08:38:20;5.72;;;3.70;;
59336;SDS011;45115;52.002;4.686;2023-07-29T08:40:49;7.45;;;4.07;;
59336;SDS011;45115;52.002;4.686;2023-07-29T08:43:20;5.80;;;3.83;;
59336;SDS011;45115;52.002;4.686;2023-07-29T08:45:54;5.45;;;3.85;;
59336;SDS011;45115;52.002;4.686;2023-07-29T08:48:23;7.65;;;4.13;;
59336;SDS011;45115;52.002;4.686;2023-07-29T08:50:58;8.70;;;4.78;;
59336;SDS011;45115;52.002;4.686;2023-07-29T08:53:27;9.80;;;5.13;;
59336;SDS011;45115;52.002;4.686;2023-07-29T08:55:54;9.85;;;5.07;;
59336;SDS011;45115;52.002;4.686;2023-07-29T08:58:22;8.93;;;5.22;;
59336;SDS011;45115;52.002;4.686;2023-07-29T09:00:49;10.48;;;5.57;;
59336;SDS011;45115;52.002;4.686;2023-07-29T09:03:16;8.23;;;5.53;;
59336;SDS011;45115;52.002;4.686;2023-07-29T09:05:45;5.40;;;4.72;;
59336;SDS011;45115;52.002;4.686;2023-07-29T09:08:12;9.38;;;5.03;;
59336;SDS011;45115;52.002;4.686;2023-07-29T09:10:38;7.50;;;5.07;;
59336;SDS011;45115;52.002;4.686;2023-07-29T09:13:06;7.00;;;4.68;;
59336;SDS011;45115;52.002;4.686;2023-07-29T09:15:34;6.32;;;4.70;;
59336;SDS011;45115;52.002;4.686;2023-07-29T09:18:08;9.07;;;5.40;;
59336;SDS011;45115;52.002;4.686;2023-07-29T09:20:36;8.85;;;5.22;;
59336;SDS011;45115;52.002;4.686;2023-07-29T09:23:06;7.80;;;4.72;;
59336;SDS011;45115;52.002;4.686;2023-07-29T09:25:34;8.60;;;4.55;;
59336;SDS011;45115;52.002;4.686;2023-07-29T09:28:02;6.70;;;4.88;;
59336;SDS011;45115;52.002;4.686;2023-07-29T09:30:34;8.15;;;5.20;;
59336;SDS011;45115;52.002;4.686;2023-07-29T09:33:01;9.57;;;5.55;;
59336;SDS011;45115;52.002;4.686;2023-07-29T09:35:28;7.47;;;5.35;;
59336;SDS011;45115;52.002;4.686;2023-07-29T09:37:56;6.38;;;5.07;;
59336;SDS011;45115;52.002;4.686;2023-07-29T09:40:24;8.35;;;4.72;;
59336;SDS011;45115;52.002;4.686;2023-07-29T09:42:52;7.38;;;4.03;;
59336;SDS011;45115;52.002;4.686;2023-07-29T09:45:20;6.35;;;4.10;;
59336;SDS011;45115;52.002;4.686;2023-07-29T09:47:48;5.90;;;4.10;;
59336;SDS011;45115;52.002;4.686;2023-07-29T09:50:15;6.40;;;4.10;;
59336;SDS011;45115;52.002;4.686;2023-07-29T09:52:42;7.65;;;4.60;;
59336;SDS011;45115;52.002;4.686;2023-07-29T09:55:11;8.73;;;4.32;;
59336;SDS011;45115;52.002;4.686;2023-07-29T09:57:40;7.13;;;4.82;;
59336;SDS011;45115;52.002;4.686;2023-07-29T10:00:07;8.55;;;5.25;;
59336;SDS011;45115;52.002;4.686;2023-07-29T10:02:37;6.77;;;4.20;;
59336;SDS011;45115;52.002;4.686;2023-07-29T10:05:05;4.97;;;3.92;;
59336;SDS011;45115;52.002;4.686;2023-07-29T10:07:33;6.57;;;3.30;;
59336;SDS011;45115;52.002;4.686;2023-07-29T10:10:01;6.53;;;3.42;;
59336;SDS011;45115;52.002;4.686;2023-07-29T10:12:29;6.10;;;2.75;;
59336;SDS011;45115;52.002;4.686;2023-07-29T10:15:00;4.88;;;2.80;;
59336;SDS011;45115;52.002;4.686;2023-07-29T10:17:28;3.08;;;2.22;;
59336;SDS011;45115;52.002;4.686;2023-07-29T10:19:56;2.88;;;2.10;;
59336;SDS011;45115;52.002;4.686;2023-07-29T10:22:24;2.80;;;2.10;;
59336;SDS011;45115;52.002;4.686;2023-07-29T10:24:54;3.17;;;1.80;;
59336;SDS011;45115;52.002;4.686;2023-07-29T10:27:25;3.90;;;1.80;;
59336;SDS011;45115;52.002;4.686;2023-07-29T10:29:55;2.20;;;1.60;;
59336;SDS011;45115;52.002;4.686;2023-07-29T10:32:25;4.78;;;1.88;;
59336;SDS011;45115;52.002;4.686;2023-07-29T10:34:52;1.98;;;1.52;;
59336;SDS011;45115;52.002;4.686;2023-07-29T10:37:20;5.93;;;1.85;;
59336;SDS011;45115;52.002;4.686;2023-07-29T10:39:57;3.65;;;1.50;;
59336;SDS011;45115;52.002;4.686;2023-07-29T10:42:26;2.03;;;1.70;;
59336;SDS011;45115;52.002;4.686;2023-07-29T10:44:54;2.25;;;1.35;;
59336;SDS011;45115;52.002;4.686;2023-07-29T10:47:21;1.65;;;1.42;;
59336;SDS011;45115;52.002;4.686;2023-07-29T10:49:51;3.05;;;1.65;;
59336;SDS011;45115;52.002;4.686;2023-07-29T10:52:30;3.25;;;2.00;;
59336;SDS011;45115;52.002;4.686;2023-07-29T10:55:22;4.45;;;2.00;;
59336;SDS011;45115;52.002;4.686;2023-07-29T10:57:51;2.97;;;2.10;;
59336;SDS011;45115;52.002;4.686;2023-07-29T11:00:19;3.38;;;2.08;;
59336;SDS011;45115;52.002;4.686;2023-07-29T11:02:56;6.53;;;2.13;;
59336;SDS011;45115;52.002;4.686;2023-07-29T11:05:27;3.55;;;2.20;;
59336;SDS011;45115;52.002;4.686;2023-07-29T11:08:19;3.85;;;2.40;;
59336;SDS011;45115;52.002;4.686;2023-07-29T11:11:07;3.08;;;2.13;;
59336;SDS011;45115;52.002;4.686;2023-07-29T11:16:05;3.65;;;2.63;;
59336;SDS011;45115;52.002;4.686;2023-07-29T11:18:33;4.18;;;2.85;;
59336;SDS011;45115;52.002;4.686;2023-07-29T11:21:03;3.63;;;2.70;;
59336;SDS011;45115;52.002;4.686;2023-07-29T11:23:31;3.17;;;2.72;;
59336;SDS011;45115;52.002;4.686;2023-07-29T11:25:58;4.22;;;2.72;;
59336;SDS011;45115;52.002;4.686;2023-07-29T11:28:27;4.75;;;2.80;;
59336;SDS011;45115;52.002;4.686;2023-07-29T11:30:54;5.75;;;2.60;;
59336;SDS011;45115;52.002;4.686;2023-07-29T11:33:23;4.03;;;2.20;;
59336;SDS011;45115;52.002;4.686;2023-07-29T11:35:51;4.85;;;3.15;;
59336;SDS011;45115;52.002;4.686;2023-07-29T11:38:20;5.35;;;2.60;;
59336;SDS011;45115;52.002;4.686;2023-07-29T11:40:54;2.85;;;2.20;;
59336;SDS011;45115;52.002;4.686;2023-07-29T11:43:21;3.80;;;2.30;;
59336;SDS011;45115;52.002;4.686;2023-07-29T11:45:48;3.25;;;2.20;;
59336;SDS011;45115;52.002;4.686;2023-07-29T11:48:15;4.05;;;2.42;;
59336;SDS011;45115;52.002;4.686;2023-07-29T11:50:41;3.35;;;2.25;;
59336;SDS011;45115;52.002;4.686;2023-07-29T11:53:09;4.40;;;2.25;;
59336;SDS011;45115;52.002;4.686;2023-07-29T11:55:38;3.63;;;2.50;;
59336;SDS011;45115;52.002;4.686;2023-07-29T11:58:05;3.10;;;2.50;;
59336;SDS011;45115;52.002;4.686;2023-07-29T12:00:32;2.70;;;2.50;;
59336;SDS011;45115;52.002;4.686;2023-07-29T12:03:00;4.00;;;2.72;;
59336;SDS011;45115;52.002;4.686;2023-07-29T12:05:27;3.08;;;2.72;;
59336;SDS011;45115;52.002;4.686;2023-07-29T12:07:54;4.40;;;2.80;;
59336;SDS011;45115;52.002;4.686;2023-07-29T12:10:21;3.97;;;3.33;;
59336;SDS011;45115;52.002;4.686;2023-07-29T12:12:49;4.15;;;3.53;;
59336;SDS011;45115;52.002;4.686;2023-07-29T12:15:23;4.40;;;3.67;;
59336;SDS011;45115;52.002;4.686;2023-07-29T12:17:52;5.25;;;3.95;;
59336;SDS011;45115;52.002;4.686;2023-07-29T12:20:21;5.38;;;4.03;;
59336;SDS011;45115;52.002;4.686;2023-07-29T12:22:51;4.88;;;4.22;;
59336;SDS011;45115;52.002;4.686;2023-07-29T12:27:45;6.03;;;3.83;;
59336;SDS011;45115;52.002;4.686;2023-07-29T12:30:14;6.18;;;3.90;;
59336;SDS011;45115;52.002;4.686;2023-07-29T12:32:45;3.92;;;3.17;;
59336;SDS011;45115;52.002;4.686;2023-07-29T12:35:12;13.52;;;3.50;;
59336;SDS011;45115;52.002;4.686;2023-07-29T12:37:39;7.63;;;3.85;;
59336;SDS011;45115;52.002;4.686;2023-07-29T12:40:08;4.10;;;3.40;;
59336;SDS011;45115;52.002;4.686;2023-07-29T12:42:46;4.63;;;3.03;;
59336;SDS011;45115;52.002;4.686;2023-07-29T12:45:16;6.68;;;3.67;;
59336;SDS011;45115;52.002;4.686;2023-07-29T12:47:43;6.30;;;3.40;;
59336;SDS011;45115;52.002;4.686;2023-07-29T12:50:10;6.25;;;4.05;;
59336;SDS011;45115;52.002;4.686;2023-07-29T12:52:37;5.15;;;4.65;;
59336;SDS011;45115;52.002;4.686;2023-07-29T12:55:04;4.45;;;4.13;;
59336;SDS011;45115;52.002;4.686;2023-07-29T12:57:33;5.95;;;4.70;;
59336;SDS011;45115;52.002;4.686;2023-07-29T13:00:01;6.00;;;3.90;;
59336;SDS011;45115;52.002;4.686;2023-07-29T13:02:31;4.55;;;3.30;;
59336;SDS011;45115;52.002;4.686;2023-07-29T13:04:57;4.50;;;3.70;;
59336;SDS011;45115;52.002;4.686;2023-07-29T13:07:24;6.60;;;2.60;;
59336;SDS011;45115;52.002;4.686;2023-07-29T13:09:51;3.25;;;2.60;;
59336;SDS011;45115;52.002;4.686;2023-07-29T13:12:17;3.92;;;2.20;;
59336;SDS011;45115;52.002;4.686;2023-07-29T13:14:44;3.97;;;2.20;;
59336;SDS011;45115;52.002;4.686;2023-07-29T13:17:11;2.85;;;1.92;;
59336;SDS011;45115;52.002;4.686;2023-07-29T13:19:39;3.80;;;2.40;;
59336;SDS011;45115;52.002;4.686;2023-07-29T13:22:05;3.60;;;2.08;;
59336;SDS011;45115;52.002;4.686;2023-07-29T13:24:32;4.72;;;2.30;;
59336;SDS011;45115;52.002;4.686;2023-07-29T13:26:58;4.50;;;2.00;;
59336;SDS011;45115;52.002;4.686;2023-07-29T13:29:25;4.80;;;2.33;;
59336;SDS011;45115;52.002;4.686;2023-07-29T13:31:52;4.63;;;2.35;;
59336;SDS011;45115;52.002;4.686;2023-07-29T13:34:18;4.00;;;2.55;;
59336;SDS011;45115;52.002;4.686;2023-07-29T13:36:46;6.68;;;2.47;;
59336;SDS011;45115;52.002;4.686;2023-07-29T13:39:13;3.95;;;2.30;;
59336;SDS011;45115;52.002;4.686;2023-07-29T13:41:40;2.85;;;1.92;;
59336;SDS011;45115;52.002;4.686;2023-07-29T13:44:07;3.03;;;2.17;;
59336;SDS011;45115;52.002;4.686;2023-07-29T13:46:33;4.03;;;2.10;;
59336;SDS011;45115;52.002;4.686;2023-07-29T13:49:00;2.30;;;1.92;;
59336;SDS011;45115;52.002;4.686;2023-07-29T13:51:28;2.13;;;1.92;;
59336;SDS011;45115;52.002;4.686;2023-07-29T13:53:56;3.78;;;1.90;;
59336;SDS011;45115;52.002;4.686;2023-07-29T13:56:23;2.17;;;1.77;;
59336;SDS011;45115;52.002;4.686;2023-07-29T13:58:50;2.83;;;1.75;;
59336;SDS011;45115;52.002;4.686;2023-07-29T14:01:16;2.45;;;2.10;;
59336;SDS011;45115;52.002;4.686;2023-07-29T14:03:43;3.30;;;2.00;;
59336;SDS011;45115;52.002;4.686;2023-07-29T14:06:10;8.57;;;2.10;;
59336;SDS011;45115;52.002;4.686;2023-07-29T14:08:37;2.85;;;1.95;;
59336;SDS011;45115;52.002;4.686;2023-07-29T14:11:07;3.13;;;1.92;;
59336;SDS011;45115;52.002;4.686;2023-07-29T14:13:34;3.55;;;2.00;;
59336;SDS011;45115;52.002;4.686;2023-07-29T14:16:01;3.33;;;2.00;;
59336;SDS011;45115;52.002;4.686;2023-07-29T14:18:27;3.40;;;2.03;;
59336;SDS011;45115;52.002;4.686;2023-07-29T14:20:54;4.72;;;1.80;;
59336;SDS011;45115;52.002;4.686;2023-07-29T14:23:21;2.85;;;1.90;;
59336;SDS011;45115;52.002;4.686;2023-07-29T14:25:48;3.60;;;2.25;;
59336;SDS011;45115;52.002;4.686;2023-07-29T14:28:16;2.38;;;1.75;;
59336;SDS011;45115;52.002;4.686;2023-07-29T14:30:42;4.93;;;2.50;;
59336;SDS011;45115;52.002;4.686;2023-07-29T14:33:09;3.45;;;2.00;;
59336;SDS011;45115;52.002;4.686;2023-07-29T14:35:36;2.35;;;2.10;;
59336;SDS011;45115;52.002;4.686;2023-07-29T14:38:03;5.13;;;1.92;;
59336;SDS011;45115;52.002;4.686;2023-07-29T14:40:29;2.45;;;1.95;;
59336;SDS011;45115;52.002;4.686;2023-07-29T14:42:56;1.90;;;1.80;;
59336;SDS011;45115;52.002;4.686;2023-07-29T14:45:24;2.53;;;2.00;;
59336;SDS011;45115;52.002;4.686;2023-07-29T14:47:51;3.17;;;2.20;;
59336;SDS011;45115;52.002;4.686;2023-07-29T14:50:17;2.30;;;2.10;;
59336;SDS011;45115;52.002;4.686;2023-07-29T14:52:44;3.28;;;1.90;;
59336;SDS011;45115;52.002;4.686;2023-07-29T14:55:10;3.67;;;1.85;;
59336;SDS011;45115;52.002;4.686;2023-07-29T14:57:37;3.45;;;2.25;;